createdAt,value
2023-03-06T00:01:48.626Z,3.83
2023-03-06T00:06:47.553Z,4.28
2023-03-06T00:11:46.597Z,6.15
2023-03-06T00:16:45.379Z,2.60
2023-03-06T00:21:44.443Z,4.90
2023-03-06T00:26:43.488Z,4.07
2023-03-06T00:31:46.448Z,5.60
2023-03-06T00:36:45.367Z,5.07
2023-03-06T00:41:46.856Z,4.93
2023-03-06T00:46:45.969Z,4.82
2023-03-06T00:51:44.834Z,3.92
2023-03-06T00:56:43.565Z,5.57
2023-03-06T01:01:42.981Z,5.03
2023-03-06T01:06:41.975Z,4.97
2023-03-06T01:11:41.117Z,4.22
2023-03-06T01:16:39.876Z,5.38
2023-03-06T01:21:38.997Z,5.10
2023-03-06T01:26:37.759Z,5.13
2023-03-06T01:31:36.813Z,7.35
2023-03-06T01:36:35.716Z,4.35
2023-03-06T01:41:34.742Z,5.60
2023-03-06T01:46:34.053Z,5.30
2023-03-06T01:51:41.145Z,6.45
2023-03-06T01:56:44.552Z,6.78
2023-03-06T02:01:44.238Z,5.72
2023-03-06T02:06:43.352Z,6.55
2023-03-06T02:11:44.257Z,6.32
2023-03-06T02:16:43.585Z,7.13
2023-03-06T02:21:42.613Z,5.90
2023-03-06T02:26:43.837Z,5.97
2023-03-06T02:31:42.856Z,6.13
2023-03-06T02:36:49.800Z,6.90
2023-03-06T02:41:48.862Z,5.80
2023-03-06T02:46:49.111Z,8.13
2023-03-06T02:51:48.077Z,6.32
2023-03-06T02:56:46.768Z,6.65
2023-03-06T03:01:47.926Z,9.30
2023-03-06T03:06:46.854Z,7.15
2023-03-06T03:11:46.448Z,8.77
2023-03-06T03:16:45.522Z,6.05
2023-03-06T03:21:44.559Z,7.10
2023-03-06T03:26:43.448Z,5.82
2023-03-06T03:31:46.997Z,6.78
2023-03-06T03:36:46.714Z,8.82
2023-03-06T03:41:46.951Z,8.35
2023-03-06T03:46:45.977Z,5.38
2023-03-06T03:51:50.152Z,9.50
2023-03-06T03:56:49.867Z,9.60
2023-03-06T04:01:56.211Z,7.03
2023-03-06T04:06:56.775Z,9.38
2023-03-06T04:11:59.189Z,7.53
2023-03-06T04:16:58.559Z,8.40
2023-03-06T04:21:57.623Z,6.95
2023-03-06T04:26:56.474Z,8.75
2023-03-06T04:31:55.919Z,6.07
2023-03-06T04:36:54.971Z,8.10
2023-03-06T04:41:54.056Z,7.70
2023-03-06T04:46:53.166Z,8.65
2023-03-06T04:51:52.073Z,9.32
2023-03-06T04:56:51.197Z,7.53
2023-03-06T05:01:50.052Z,7.93
2023-03-06T05:06:49.693Z,8.23
2023-03-06T05:11:48.426Z,7.22
2023-03-06T05:16:47.501Z,7.50
2023-03-06T05:21:46.379Z,7.93
2023-03-06T05:26:45.076Z,5.60
2023-03-06T05:31:44.232Z,12.95
2023-03-06T05:36:43.202Z,6.95
2023-03-06T05:41:42.034Z,4.32
2023-03-06T05:46:40.841Z,5.68
2023-03-06T05:51:39.569Z,6.97
2023-03-06T05:56:38.500Z,7.57
2023-03-06T06:01:37.270Z,9.23
2023-03-06T06:06:36.277Z,8.30
2023-03-06T06:11:35.048Z,9.13
2023-03-06T06:16:34.122Z,7.05
2023-03-06T06:21:34.480Z,8.20
2023-03-06T06:26:33.894Z,9.00
2023-03-06T06:31:33.125Z,8.70
2023-03-06T06:36:33.514Z,8.90
2023-03-06T06:41:51.019Z,10.40
2023-03-06T06:52:11.094Z,8.35
2023-03-06T06:57:11.791Z,11.68
2023-03-06T07:02:12.860Z,12.52
2023-03-06T07:07:11.672Z,12.05
2023-03-06T07:12:10.718Z,10.18
2023-03-06T07:17:10.142Z,9.98
2023-03-06T07:22:08.944Z,13.85
2023-03-06T07:27:08.638Z,11.13
2023-03-06T07:32:07.550Z,10.38
2023-03-06T07:37:07.167Z,12.55
2023-03-06T07:42:07.905Z,11.70
2023-03-06T07:47:07.284Z,10.57
2023-03-06T07:52:06.361Z,14.35
2023-03-06T07:57:05.344Z,10.80
2023-03-06T08:02:04.735Z,10.40
2023-03-06T08:07:03.829Z,11.52
2023-03-06T08:12:02.860Z,11.20
2023-03-06T08:17:01.951Z,10.57
2023-03-06T08:22:00.870Z,12.15
2023-03-06T08:27:00.062Z,11.55
2023-03-06T08:31:59.100Z,11.88
2023-03-06T08:36:58.754Z,10.98
2023-03-06T08:41:58.365Z,11.65
2023-03-06T08:46:57.618Z,11.43
2023-03-06T08:51:56.626Z,11.00
2023-03-06T08:56:55.668Z,14.43
2023-03-06T09:01:54.719Z,13.40
2023-03-06T09:06:55.498Z,13.23
2023-03-06T09:11:55.181Z,12.70
2023-03-06T09:16:54.324Z,12.85
2023-03-06T09:21:54.239Z,12.48
2023-03-06T09:26:53.329Z,11.93
2023-03-06T09:31:52.309Z,12.32
2023-03-06T09:36:56.424Z,13.63
2023-03-06T09:41:58.352Z,15.05
2023-03-06T09:47:00.113Z,13.15
2023-03-06T09:52:08.032Z,13.57
2023-03-06T09:57:18.938Z,11.40
2023-03-06T10:02:29.885Z,14.30
2023-03-06T10:07:39.157Z,14.15
2023-03-06T10:12:48.617Z,14.95
2023-03-06T10:17:48.154Z,13.15
2023-03-06T10:23:08.972Z,14.40
2023-03-06T10:28:29.581Z,14.70
2023-03-06T10:34:13.976Z,13.27
2023-03-06T10:39:16.982Z,13.10
2023-03-06T10:44:16.452Z,14.10
2023-03-06T10:49:37.935Z,12.32
2023-03-06T10:54:39.647Z,12.30
2023-03-06T10:59:51.635Z,16.02
2023-03-06T11:04:53.060Z,16.48
2023-03-06T11:09:58.060Z,14.40
2023-03-06T11:15:12.821Z,12.48
2023-03-06T11:20:14.959Z,13.65
2023-03-06T11:25:17.250Z,14.10
2023-03-06T11:30:21.846Z,13.73
2023-03-06T11:35:24.856Z,15.85
2023-03-06T11:40:31.002Z,14.88
2023-03-06T11:45:47.421Z,16.17
2023-03-06T11:50:50.256Z,13.25
2023-03-06T11:56:03.768Z,18.05
2023-03-06T12:01:16.089Z,18.25
2023-03-06T12:06:44.495Z,17.15
2023-03-06T12:12:06.062Z,17.30
2023-03-06T12:17:18.613Z,17.88
2023-03-06T12:22:57.793Z,17.75
2023-03-06T12:28:11.879Z,15.68
2023-03-06T12:33:29.898Z,16.58
2023-03-06T12:38:41.096Z,14.95
2023-03-06T12:44:02.759Z,15.52
2023-03-06T12:49:31.996Z,17.80
2023-03-06T12:54:36.852Z,15.75
2023-03-06T12:59:48.038Z,16.42
2023-03-06T13:05:27.763Z,13.82
2023-03-06T13:10:34.005Z,15.43
2023-03-06T13:15:36.108Z,16.10
2023-03-06T13:20:40.998Z,17.90
2023-03-06T13:25:48.157Z,15.80
2023-03-06T13:30:47.076Z,17.95
2023-03-06T13:35:54.072Z,17.85
2023-03-06T13:41:22.306Z,16.95
2023-03-06T13:46:27.384Z,15.40
2023-03-06T13:51:31.323Z,16.77
2023-03-06T13:56:46.283Z,11.30
2023-03-06T14:02:15.805Z,13.45
2023-03-06T14:07:58.360Z,10.95
2023-03-06T14:13:14.948Z,13.15
2023-03-06T14:18:18.728Z,12.90
2023-03-06T14:23:35.546Z,11.35
2023-03-06T14:28:35.851Z,14.32
2023-03-06T14:34:05.147Z,12.82
2023-03-06T14:39:13.006Z,13.27
2023-03-06T14:44:26.670Z,15.05
2023-03-06T14:49:26.987Z,15.55
2023-03-06T14:54:32.053Z,13.35
2023-03-06T14:59:39.419Z,12.10
2023-03-06T15:04:44.441Z,12.90
2023-03-06T15:09:52.187Z,12.75
2023-03-06T15:15:01.751Z,11.90
2023-03-06T15:20:01.281Z,12.18
2023-03-06T15:25:18.641Z,10.52
2023-03-06T15:30:23.348Z,9.63
2023-03-06T15:35:34.265Z,7.15
2023-03-06T15:40:35.916Z,9.25
2023-03-06T15:45:35.262Z,8.15
2023-03-06T15:50:34.188Z,8.80
2023-03-06T15:55:33.341Z,8.60
2023-03-06T16:00:34.462Z,8.95
2023-03-06T16:05:33.301Z,9.43
2023-03-06T16:10:35.526Z,9.02
2023-03-06T16:15:45.063Z,9.32
2023-03-06T16:20:43.931Z,7.72
2023-03-06T16:25:48.526Z,8.55
2023-03-06T16:30:47.530Z,8.35
2023-03-06T16:35:47.348Z,11.98
2023-03-06T16:40:46.063Z,11.70
2023-03-06T16:45:45.135Z,11.18
2023-03-06T16:50:44.681Z,10.63
2023-03-06T16:55:43.509Z,10.68
2023-03-06T17:00:42.519Z,10.38
2023-03-06T17:05:43.680Z,13.18
2023-03-06T17:10:42.910Z,11.60
2023-03-06T17:15:41.773Z,9.65
2023-03-06T17:20:40.923Z,9.85
2023-03-06T17:25:39.858Z,10.65
2023-03-06T17:30:38.666Z,8.68
2023-03-06T17:35:37.811Z,10.25
2023-03-06T17:40:37.588Z,8.40
2023-03-06T17:45:37.055Z,7.55
2023-03-06T17:50:35.795Z,8.90
2023-03-06T17:55:34.773Z,2.40
2023-03-06T18:00:33.948Z,7.25
2023-03-06T18:05:32.846Z,9.02
2023-03-06T18:10:32.055Z,9.77
2023-03-06T18:15:31.142Z,9.63
2023-03-06T18:20:30.190Z,9.05
2023-03-06T18:25:31.054Z,9.82
2023-03-06T18:30:29.917Z,10.82
2023-03-06T18:35:28.938Z,11.13
2023-03-06T18:40:27.705Z,12.10
2023-03-06T18:45:26.551Z,7.72
2023-03-06T18:50:25.526Z,13.00
2023-03-06T18:55:24.373Z,10.98
2023-03-06T19:00:23.660Z,11.68
2023-03-06T19:05:22.651Z,10.45
2023-03-06T19:10:21.475Z,11.05
2023-03-06T19:15:20.214Z,11.85
2023-03-06T19:20:19.069Z,14.75
2023-03-06T19:25:18.226Z,11.25
2023-03-06T19:30:17.069Z,12.55
2023-03-06T19:35:15.862Z,12.40
2023-03-06T19:40:15.773Z,12.52
2023-03-06T19:45:14.611Z,10.65
2023-03-06T19:50:13.540Z,10.68
2023-03-06T19:55:12.636Z,9.88
2023-03-06T20:00:12.356Z,11.77
2023-03-06T20:05:14.445Z,12.80
2023-03-06T20:10:13.252Z,9.93
2023-03-06T20:15:13.030Z,10.68
2023-03-06T20:20:12.375Z,9.10
2023-03-06T20:25:11.301Z,10.20
2023-03-06T20:30:10.618Z,12.32
2023-03-06T20:35:09.559Z,10.05
2023-03-06T20:40:09.081Z,10.95
2023-03-06T20:45:08.720Z,10.65
2023-03-06T20:50:07.903Z,12.30
2023-03-06T20:55:07.149Z,12.38
2023-03-06T21:00:06.838Z,11.45
2023-03-06T21:05:06.675Z,13.90
2023-03-06T21:10:06.255Z,11.48
2023-03-06T21:15:05.544Z,15.65
2023-03-06T21:20:05.887Z,14.00
2023-03-06T21:25:05.084Z,13.57
2023-03-06T21:30:04.867Z,13.05
2023-03-06T21:35:03.700Z,13.90
2023-03-06T21:40:02.714Z,16.92
2023-03-06T21:45:04.037Z,12.18
2023-03-06T21:50:02.845Z,15.65
2023-03-06T21:55:01.771Z,15.65
2023-03-06T22:00:00.709Z,13.90
2023-03-06T22:04:59.694Z,13.77
2023-03-06T22:09:58.545Z,14.73
2023-03-06T22:14:57.346Z,14.50
2023-03-06T22:19:56.065Z,13.93
2023-03-06T22:24:54.824Z,14.80
2023-03-06T22:29:53.591Z,14.95
2023-03-06T22:34:52.314Z,14.05
2023-03-06T22:39:51.087Z,14.45
2023-03-06T22:44:49.818Z,14.43
2023-03-06T22:49:48.569Z,13.05
2023-03-06T22:54:47.354Z,13.80
2023-03-06T22:59:46.125Z,16.02
2023-03-06T23:04:52.316Z,14.23
2023-03-06T23:09:51.144Z,12.70
2023-03-06T23:15:08.306Z,15.77
2023-03-06T23:20:25.745Z,17.23
2023-03-06T23:25:44.125Z,16.30
2023-03-06T23:30:43.319Z,15.82
2023-03-06T23:35:44.125Z,14.93
2023-03-06T23:40:42.928Z,15.20
2023-03-06T23:45:41.673Z,16.90
2023-03-06T23:50:41.142Z,14.50
2023-03-06T23:55:47.796Z,16.38
